createdAt,value
2022-10-17T00:00:16.334Z,1090.98
2022-10-17T00:01:16.374Z,1090.65
2022-10-17T00:02:16.320Z,1090.56
2022-10-17T00:03:16.315Z,1090.26
2022-10-17T00:04:16.324Z,1090.33
2022-10-17T00:05:16.345Z,1090.02
2022-10-17T00:06:16.325Z,1090.06
2022-10-17T00:07:16.328Z,1089.89
2022-10-17T00:08:19.497Z,1089.51
2022-10-17T00:09:16.328Z,1089.15
2022-10-17T00:10:16.350Z,1088.7
2022-10-17T00:11:16.330Z,1088.36
2022-10-17T00:12:16.332Z,1088.14
2022-10-17T00:13:16.337Z,1087.76
2022-10-17T00:14:16.335Z,1087.67
2022-10-17T00:15:16.361Z,1087.41
2022-10-17T00:16:16.338Z,1087.2
2022-10-17T00:17:16.364Z,1087.08
2022-10-17T00:18:16.348Z,1087.05
2022-10-17T00:19:19.166Z,1087.23
2022-10-17T00:20:16.389Z,1087.22
2022-10-17T00:21:16.349Z,1086.98
2022-10-17T00:22:16.352Z,1087.17
2022-10-17T00:23:16.350Z,1086.86
2022-10-17T00:24:16.350Z,1086.48
2022-10-17T00:25:16.375Z,1086.31
2022-10-17T00:26:16.352Z,1086.52
2022-10-17T00:27:16.355Z,1086.49
2022-10-17T00:28:16.360Z,1086.31
2022-10-17T00:29:16.369Z,1085.98
2022-10-17T00:30:19.187Z,1086.13
2022-10-17T00:31:16.364Z,1085.96
2022-10-17T00:32:16.368Z,1086.07
2022-10-17T00:33:16.391Z,1085.98
2022-10-17T00:34:16.369Z,1085.78
2022-10-17T00:35:16.402Z,1085.92
2022-10-17T00:36:16.370Z,1085.66
2022-10-17T00:37:16.373Z,1085.54
2022-10-17T00:38:16.374Z,1085.3
2022-10-17T00:39:16.378Z,1084.89
2022-10-17T00:40:16.421Z,1084.79
2022-10-17T00:41:16.377Z,1084.7
2022-10-17T00:42:16.381Z,1084.43
2022-10-17T00:43:16.381Z,1084.3
2022-10-17T00:44:16.387Z,1084.16
2022-10-17T00:45:16.405Z,1083.78
2022-10-17T00:46:16.409Z,1083.64
2022-10-17T00:47:16.389Z,1083.18
2022-10-17T00:48:18.008Z,1082.8
2022-10-17T00:49:16.415Z,1082.66
2022-10-17T00:50:16.408Z,1082.33
2022-10-17T00:51:16.397Z,1082.22
2022-10-17T00:52:16.395Z,1082.17
2022-10-17T00:53:16.400Z,1081.98
2022-10-17T00:54:16.400Z,1081.9
2022-10-17T00:55:16.421Z,1081.56
2022-10-17T00:56:16.402Z,1081.25
2022-10-17T00:57:16.405Z,1081.08
2022-10-17T00:58:16.410Z,1080.93
2022-10-17T00:59:16.411Z,1080.49
2022-10-17T01:00:16.425Z,1080.57
2022-10-17T01:01:16.453Z,1080.35
2022-10-17T01:02:16.420Z,1080.43
2022-10-17T01:03:16.416Z,1080.31
2022-10-17T01:04:16.421Z,1080.18
2022-10-17T01:05:16.461Z,1080.15
2022-10-17T01:06:16.422Z,1080.01
2022-10-17T01:07:16.423Z,1080.01
2022-10-17T01:08:16.424Z,1080.14
2022-10-17T01:09:16.425Z,1080.01
2022-10-17T01:10:16.468Z,1079.88
2022-10-17T01:11:16.437Z,1079.87
2022-10-17T01:12:16.431Z,1079.94
2022-10-17T01:13:16.436Z,1079.4
2022-10-17T01:14:16.438Z,1079.42
2022-10-17T01:15:16.450Z,1079.3
2022-10-17T01:16:16.440Z,1079.24
2022-10-17T01:17:16.439Z,1079.16
2022-10-17T01:18:16.444Z,1078.96
2022-10-17T01:19:16.474Z,1078.81
2022-10-17T01:20:16.466Z,1078.6
2022-10-17T01:21:16.469Z,1078.4
2022-10-17T01:22:16.448Z,1077.97
2022-10-17T01:23:16.457Z,1078.01
2022-10-17T01:24:16.454Z,1077.91
2022-10-17T01:25:16.469Z,1077.7
2022-10-17T01:26:16.458Z,1077.77
2022-10-17T01:27:16.457Z,1077.58
2022-10-17T01:28:16.459Z,1077.59
2022-10-17T01:29:16.488Z,1077.04
2022-10-17T01:30:16.477Z,1077.16
2022-10-17T01:31:17.490Z,1077.18
2022-10-17T01:32:16.465Z,1077.15
2022-10-17T01:33:16.490Z,1077.11
2022-10-17T01:34:16.470Z,1076.9
2022-10-17T01:35:16.495Z,1076.74
2022-10-17T01:36:16.469Z,1076.35
2022-10-17T01:37:16.508Z,1076.19
2022-10-17T01:38:16.474Z,1075.87
2022-10-17T01:39:16.502Z,1075.08
2022-10-17T01:40:16.495Z,1075.18
2022-10-17T01:41:16.480Z,1074.63
2022-10-17T01:42:16.479Z,1074.26
2022-10-17T01:43:16.485Z,1073.76
2022-10-17T01:44:16.486Z,1074.02
2022-10-17T01:45:16.518Z,1073.8
2022-10-17T01:46:16.490Z,1073.58
2022-10-17T01:47:16.501Z,1073.3
2022-10-17T01:48:16.491Z,1073.62
2022-10-17T01:49:16.510Z,1073.48
2022-10-17T01:50:16.516Z,1073.48
2022-10-17T01:51:16.496Z,1073.67
2022-10-17T01:52:16.497Z,1073.52
2022-10-17T01:53:16.543Z,1073.84
2022-10-17T01:54:16.499Z,1073.87
2022-10-17T01:55:16.521Z,1073.82
2022-10-17T01:56:16.508Z,1073.96
2022-10-17T01:57:16.519Z,1073.83
2022-10-17T01:58:16.507Z,1073.84
2022-10-17T01:59:16.525Z,1073.7
2022-10-17T02:00:16.532Z,1073.68
2022-10-17T02:01:16.553Z,1073.76
2022-10-17T02:02:16.515Z,1073.79
2022-10-17T02:03:16.522Z,1074.01
2022-10-17T02:04:16.521Z,1073.78
2022-10-17T02:05:16.539Z,1073.75
2022-10-17T02:06:16.529Z,1073.47
2022-10-17T02:07:16.521Z,1073.34
2022-10-17T02:08:16.529Z,1073.21
2022-10-17T02:09:16.561Z,1072.85
2022-10-17T02:10:16.547Z,1072.75
2022-10-17T02:11:16.553Z,1072.43
2022-10-17T02:12:16.540Z,1072.5
2022-10-17T02:13:19.426Z,1072.43
2022-10-17T02:14:16.538Z,1072.38
2022-10-17T02:15:16.561Z,1072.26
2022-10-17T02:16:16.545Z,1072.55
2022-10-17T02:17:16.560Z,1072.55
2022-10-17T02:18:16.546Z,1072.45
2022-10-17T02:19:16.544Z,1072.43
2022-10-17T02:20:16.581Z,1072.22
2022-10-17T02:21:16.550Z,1072.37
2022-10-17T02:22:16.549Z,1071.94
2022-10-17T02:23:16.554Z,1071.61
2022-10-17T02:24:19.688Z,1071.22
2022-10-17T02:25:16.570Z,1070.85
2022-10-17T02:26:16.555Z,1070.41
2022-10-17T02:27:16.556Z,1069.86
2022-10-17T02:28:16.570Z,1069.74
2022-10-17T02:29:16.564Z,1069.38
2022-10-17T02:30:16.581Z,1069.18
2022-10-17T02:31:16.569Z,1068.63
2022-10-17T02:32:16.587Z,1068.29
2022-10-17T02:33:16.570Z,1067.67
2022-10-17T02:34:16.569Z,1067.48
2022-10-17T02:35:18.196Z,1067.05
2022-10-17T02:36:16.574Z,1066.67
2022-10-17T02:37:16.575Z,1066.06
2022-10-17T02:38:16.579Z,1065.85
2022-10-17T02:39:16.578Z,1065.23
2022-10-17T02:40:16.603Z,1064.93
2022-10-17T02:41:16.669Z,1064.45
2022-10-17T02:42:16.587Z,1064.05
2022-10-17T02:43:16.586Z,1063.75
2022-10-17T02:44:16.587Z,1063.31
2022-10-17T02:45:16.598Z,1062.99
2022-10-17T02:46:19.593Z,1062.6
2022-10-17T02:47:16.589Z,1062.45
2022-10-17T02:48:16.598Z,1062.06
2022-10-17T02:49:16.597Z,1061.71
2022-10-17T02:50:16.639Z,1061
2022-10-17T02:51:16.601Z,1060.86
2022-10-17T02:52:16.599Z,1060.16
2022-10-17T02:53:16.603Z,1060
2022-10-17T02:54:16.603Z,1059.78
2022-10-17T02:55:16.609Z,1059.52
2022-10-17T02:56:16.636Z,1059.16
2022-10-17T02:57:19.434Z,1058.78
2022-10-17T02:58:16.615Z,1058.6
2022-10-17T02:59:16.611Z,1058.77
2022-10-17T03:00:16.613Z,1058.74
2022-10-17T03:01:16.673Z,1058.53
2022-10-17T03:02:16.617Z,1058.37
2022-10-17T03:03:16.618Z,1058.22
2022-10-17T03:04:16.619Z,1058.12
2022-10-17T03:05:16.647Z,1058.12
2022-10-17T03:06:16.623Z,1058.29
2022-10-17T03:07:19.680Z,1058.41
2022-10-17T03:08:19.622Z,1058.68
2022-10-17T03:09:16.627Z,1058.7
2022-10-17T03:10:16.631Z,1058.69
2022-10-17T03:11:16.633Z,1058.59
2022-10-17T03:12:16.654Z,1058.3
2022-10-17T03:13:16.633Z,1057.94
2022-10-17T03:14:16.635Z,1057.6
2022-10-17T03:15:16.641Z,1057.26
2022-10-17T03:16:16.642Z,1056.92
2022-10-17T03:17:16.641Z,1056.32
2022-10-17T03:18:16.644Z,1055.92
2022-10-17T03:19:16.643Z,1055.48
2022-10-17T03:20:16.645Z,1055.6
2022-10-17T03:21:16.654Z,1055.13
2022-10-17T03:22:16.681Z,1054.96
2022-10-17T03:23:16.653Z,1054.65
2022-10-17T03:24:16.655Z,1054.42
2022-10-17T03:25:16.705Z,1054.43
2022-10-17T03:26:16.657Z,1054.42
2022-10-17T03:27:16.658Z,1054.5
2022-10-17T03:28:16.687Z,1054.8
2022-10-17T03:29:16.662Z,1054.9
2022-10-17T03:30:16.667Z,1054.89
2022-10-17T03:31:16.668Z,1054.97
2022-10-17T03:32:16.695Z,1055.3
2022-10-17T03:33:16.668Z,1055.2
2022-10-17T03:34:16.681Z,1055.44
2022-10-17T03:35:16.671Z,1055.23
2022-10-17T03:36:16.679Z,1054.77
2022-10-17T03:37:16.678Z,1054.88
2022-10-17T03:38:16.676Z,1054.53
2022-10-17T03:39:16.676Z,1054.21
2022-10-17T03:40:16.685Z,1054.11
2022-10-17T03:41:16.679Z,1053.77
2022-10-17T03:42:16.683Z,1053.43
2022-10-17T03:43:16.684Z,1052.84
2022-10-17T03:44:16.710Z,1052.17
2022-10-17T03:45:16.688Z,1052.04
2022-10-17T03:47:16.691Z,1051.06
2022-10-17T03:48:16.695Z,1050.76
2022-10-17T03:49:16.699Z,1050.42
2022-10-17T03:50:16.697Z,1050.39
2022-10-17T03:51:16.699Z,1049.9
2022-10-17T03:52:16.700Z,1050.01
2022-10-17T03:53:16.701Z,1050.22
2022-10-17T03:54:16.704Z,1049.98
2022-10-17T03:55:16.725Z,1050
2022-10-17T03:56:16.704Z,1049.98
2022-10-17T03:57:16.707Z,1049.8
2022-10-17T03:58:16.709Z,1049.43
2022-10-17T03:59:16.709Z,1049.14
2022-10-17T04:00:16.735Z,1049.3
2022-10-17T04:01:16.770Z,1048.87
2022-10-17T04:02:16.719Z,1049.1
2022-10-17T04:03:17.249Z,1048.28
2022-10-17T04:04:16.721Z,1048.31
2022-10-17T04:05:16.723Z,1048.01
2022-10-17T04:06:16.722Z,1047.58
2022-10-17T04:07:16.797Z,1046.93
2022-10-17T04:08:16.729Z,1047.07
2022-10-17T04:09:16.732Z,1046.79
2022-10-17T04:10:16.738Z,1046.42
2022-10-17T04:11:16.728Z,1046.17
2022-10-17T04:12:16.739Z,1045.97
2022-10-17T04:13:16.739Z,1045.57
2022-10-17T04:14:16.734Z,1045.15
2022-10-17T04:15:16.737Z,1044.89
2022-10-17T04:16:16.809Z,1044.64
2022-10-17T04:17:16.741Z,1044.17
2022-10-17T04:18:16.748Z,1044.39
2022-10-17T04:19:16.751Z,1044.17
2022-10-17T04:20:16.746Z,1044.4
2022-10-17T04:21:16.767Z,1044.06
2022-10-17T04:22:16.750Z,1043.92
2022-10-17T04:23:16.753Z,1043.63
2022-10-17T04:24:16.759Z,1042.95
2022-10-17T04:25:16.753Z,1042.92
2022-10-17T04:26:16.776Z,1042.51
2022-10-17T04:27:16.760Z,1042.42
2022-10-17T04:28:16.825Z,1042.1
2022-10-17T04:29:16.765Z,1041.9
2022-10-17T04:30:16.762Z,1041.52
2022-10-17T04:31:16.789Z,1041.54
2022-10-17T04:32:16.793Z,1041.61
2022-10-17T04:33:16.772Z,1041.04
2022-10-17T04:34:16.771Z,1040.88
2022-10-17T04:35:16.777Z,1041
2022-10-17T04:36:16.802Z,1040.92
2022-10-17T04:37:16.773Z,1040.89
2022-10-17T04:38:16.777Z,1040.96
2022-10-17T04:39:16.783Z,1040.7
2022-10-17T04:40:16.817Z,1040.59
2022-10-17T04:41:16.796Z,1040.79
2022-10-17T04:42:16.785Z,1040.42
2022-10-17T04:43:19.872Z,1040.9
2022-10-17T04:44:16.786Z,1041.33
2022-10-17T04:45:16.787Z,1041.36
2022-10-17T04:46:16.807Z,1041.64
2022-10-17T04:47:16.793Z,1041.98
2022-10-17T04:48:16.817Z,1041.95
2022-10-17T04:49:16.803Z,1041.87
2022-10-17T04:50:16.803Z,1041.82
2022-10-17T04:51:19.594Z,1042.12
2022-10-17T04:52:16.799Z,1041.68
2022-10-17T04:53:16.802Z,1041.74
2022-10-17T04:54:16.804Z,1041.07
2022-10-17T04:55:16.807Z,1040.99
2022-10-17T04:56:16.808Z,1040.7
2022-10-17T04:57:16.807Z,1040.46
2022-10-17T04:58:19.585Z,1040.27
2022-10-17T04:59:16.818Z,1040.05
2022-10-17T05:00:16.813Z,1039.81
2022-10-17T05:01:16.893Z,1039.63
2022-10-17T05:02:18.005Z,1039.65
2022-10-17T05:03:16.819Z,1039.39
2022-10-17T05:04:18.915Z,1039.18
2022-10-17T05:05:16.824Z,1038.97
2022-10-17T05:06:16.823Z,1038.95
2022-10-17T05:07:16.822Z,1038.54
2022-10-17T05:08:16.831Z,1038.34
2022-10-17T05:09:16.828Z,1038.18
2022-10-17T05:10:16.831Z,1037.98
2022-10-17T05:11:16.831Z,1037.81
2022-10-17T05:12:16.834Z,1037.83
2022-10-17T05:13:19.979Z,1037.43
2022-10-17T05:14:16.834Z,1037.14
2022-10-17T05:15:19.625Z,1037.25
2022-10-17T05:16:16.987Z,1036.78
2022-10-17T05:17:16.845Z,1037
2022-10-17T05:18:16.845Z,1036.4
2022-10-17T05:19:16.845Z,1036.75
2022-10-17T05:20:16.872Z,1036.33
2022-10-17T05:21:16.852Z,1036.54
2022-10-17T05:22:16.852Z,1035.92
2022-10-17T05:23:16.852Z,1035.83
2022-10-17T05:24:19.642Z,1035.89
2022-10-17T05:25:16.858Z,1035.89
2022-10-17T05:26:16.857Z,1035.95
2022-10-17T05:27:16.858Z,1036
2022-10-17T05:28:16.864Z,1035.67
2022-10-17T05:29:16.858Z,1035.71
2022-10-17T05:30:16.867Z,1035.44
2022-10-17T05:31:16.864Z,1035.58
2022-10-17T05:32:16.866Z,1035.23
2022-10-17T05:33:16.868Z,1035.21
2022-10-17T05:34:16.880Z,1035.44
2022-10-17T05:35:19.931Z,1035.18
2022-10-17T05:36:16.874Z,1035.05
2022-10-17T05:37:16.877Z,1035.27
2022-10-17T05:38:16.881Z,1035.46
2022-10-17T05:39:16.877Z,1035.29
2022-10-17T05:40:16.880Z,1035.64
2022-10-17T05:41:16.882Z,1035.54
2022-10-17T05:42:16.883Z,1035.56
2022-10-17T05:43:17.451Z,1035.65
2022-10-17T05:44:16.892Z,1035.63
2022-10-17T05:45:16.887Z,1035.55
2022-10-17T05:46:16.888Z,1035.71
2022-10-17T05:47:16.891Z,1035.58
2022-10-17T05:48:16.893Z,1035.93
2022-10-17T05:49:31.806Z,1035.66
2022-10-17T05:50:16.895Z,1035.78
2022-10-17T05:51:16.926Z,1035.51
2022-10-17T05:52:16.934Z,1035.51
2022-10-17T05:53:16.964Z,1035.42
2022-10-17T05:54:16.902Z,1035.4
2022-10-17T05:55:16.907Z,1035.51
2022-10-17T05:56:16.916Z,1035.27
2022-10-17T05:57:16.912Z,1034.99
2022-10-17T05:58:21.701Z,1034.79
2022-10-17T05:59:16.910Z,1034.82
2022-10-17T06:00:16.913Z,1034.98
2022-10-17T06:01:16.917Z,1034.54
2022-10-17T06:02:17.081Z,1035.06
2022-10-17T06:03:16.999Z,1034.92
2022-10-17T06:04:16.923Z,1035.06
2022-10-17T06:05:17.981Z,1035.19
2022-10-17T06:06:17.108Z,1035.24
2022-10-17T06:07:16.975Z,1035.55
2022-10-17T06:08:16.955Z,1035.7
2022-10-17T06:09:16.929Z,1036.12
2022-10-17T06:10:16.938Z,1036.04
2022-10-17T06:11:16.936Z,1036.22
2022-10-17T06:12:16.931Z,1036.29
2022-10-17T06:13:16.976Z,1036.48
2022-10-17T06:14:16.936Z,1036.27
2022-10-17T06:15:16.936Z,1036.66
2022-10-17T06:16:16.941Z,1036.85
2022-10-17T06:17:16.941Z,1037.55
2022-10-17T06:18:16.946Z,1037.87
2022-10-17T06:19:16.945Z,1038.27
2022-10-17T06:20:16.945Z,1038.58
2022-10-17T06:21:16.951Z,1039.05
2022-10-17T06:22:16.948Z,1039.65
2022-10-17T06:23:16.973Z,1040.25
2022-10-17T06:24:16.951Z,1041.38
2022-10-17T06:25:16.957Z,1041.94
2022-10-17T06:26:16.975Z,1043.29
2022-10-17T06:27:16.957Z,1044.45
2022-10-17T06:28:16.956Z,1045.14
2022-10-17T06:29:16.969Z,1045.86
2022-10-17T06:30:16.994Z,1046.7
2022-10-17T06:31:17.004Z,1047.67
2022-10-17T06:32:16.964Z,1048.76
2022-10-17T06:33:16.993Z,1049.82
2022-10-17T06:34:16.971Z,1050.66
2022-10-17T06:35:16.974Z,1051.75
2022-10-17T06:36:16.981Z,1052.83
2022-10-17T06:37:16.978Z,1053.66
2022-10-17T06:38:16.976Z,1055.11
2022-10-17T06:39:17.001Z,1056.03
2022-10-17T06:40:16.983Z,1057.22
2022-10-17T06:41:16.981Z,1058.12
2022-10-17T06:42:16.982Z,1059.35
2022-10-17T06:43:16.982Z,1060.42
2022-10-17T06:44:16.987Z,1061.13
2022-10-17T06:45:16.990Z,1062.47
2022-10-17T06:46:16.998Z,1063.45
2022-10-17T06:47:19.214Z,1064.75
2022-10-17T06:48:16.992Z,1066.08
2022-10-17T06:49:16.996Z,1067.57
2022-10-17T06:50:17.002Z,1068.93
2022-10-17T06:51:17.001Z,1070.41
2022-10-17T06:52:17.000Z,1071.61
2022-10-17T06:53:17.007Z,1072.88
2022-10-17T06:54:17.003Z,1074.53
2022-10-17T06:55:19.557Z,1076.42
2022-10-17T06:56:17.013Z,1080.22
2022-10-17T06:57:17.035Z,1084.85
2022-10-17T06:58:17.011Z,1088.44
2022-10-17T06:59:17.011Z,1090.87
2022-10-17T07:00:17.014Z,1094.09
2022-10-17T07:01:17.024Z,1097.48
2022-10-17T07:02:17.033Z,1100.72
2022-10-17T07:03:17.021Z,1104.22
2022-10-17T07:04:17.019Z,1107.82
2022-10-17T07:05:17.041Z,1111.34
2022-10-17T07:06:17.024Z,1114.48
2022-10-17T07:07:17.043Z,1117.36
2022-10-17T07:08:17.025Z,1119.95
2022-10-17T07:09:17.028Z,1122.65
2022-10-17T07:10:17.031Z,1125.2
2022-10-17T07:11:17.061Z,1127.58
2022-10-17T07:12:17.052Z,1129.68
2022-10-17T07:13:17.036Z,1131.26
2022-10-17T07:14:17.035Z,1132.74
2022-10-17T07:15:17.038Z,1134.34
2022-10-17T07:16:17.043Z,1135.64
2022-10-17T07:17:17.062Z,1136.75
2022-10-17T07:18:19.932Z,1137.85
2022-10-17T07:19:17.044Z,1138.8
2022-10-17T07:20:17.049Z,1139.58
2022-10-17T07:21:17.048Z,1140.1
2022-10-17T07:22:17.079Z,1140.43
2022-10-17T07:23:17.054Z,1140.71
2022-10-17T07:24:17.052Z,1140.71
2022-10-17T07:25:17.056Z,1140.68
2022-10-17T07:26:17.062Z,1140.44
2022-10-17T07:27:17.126Z,1140.15
2022-10-17T07:28:17.063Z,1139.72
2022-10-17T07:29:20.126Z,1139.19
2022-10-17T07:30:17.064Z,1138.62
2022-10-17T07:31:17.066Z,1138.07
2022-10-17T07:32:17.098Z,1137.68
2022-10-17T07:33:17.067Z,1136.97
2022-10-17T07:34:17.085Z,1136.57
2022-10-17T07:35:17.072Z,1136.21
2022-10-17T07:36:17.084Z,1135.47
2022-10-17T07:37:17.106Z,1134.68
2022-10-17T07:38:17.080Z,1133.81
2022-10-17T07:39:17.083Z,1132.88
2022-10-17T07:40:19.838Z,1131.86
2022-10-17T07:41:17.943Z,1131.04
2022-10-17T07:42:17.110Z,1130.27
2022-10-17T07:43:17.113Z,1129.55
2022-10-17T07:44:17.090Z,1128.65
2022-10-17T07:45:17.098Z,1127.9
2022-10-17T07:46:17.093Z,1127.18
2022-10-17T07:47:17.114Z,1126.06
2022-10-17T07:48:17.100Z,1124.98
2022-10-17T07:49:17.121Z,1124
2022-10-17T07:50:17.099Z,1122.88
2022-10-17T07:51:22.984Z,1121.61
2022-10-17T07:52:17.124Z,1120.21
2022-10-17T07:53:17.123Z,1118.91
2022-10-17T07:54:17.106Z,1117.74
2022-10-17T07:55:17.114Z,1116.15
2022-10-17T07:56:17.113Z,1114.81
2022-10-17T07:57:17.126Z,1113.31
2022-10-17T07:58:17.117Z,1111.69
2022-10-17T07:59:17.140Z,1109.89
2022-10-17T08:00:17.121Z,1108.17
2022-10-17T08:01:17.122Z,1106.49
2022-10-17T08:02:17.154Z,1105.03
2022-10-17T08:03:17.128Z,1103.55
2022-10-17T08:04:17.128Z,1102.03
2022-10-17T08:05:17.132Z,1100.26
2022-10-17T08:06:17.128Z,1098.18
2022-10-17T08:07:23.193Z,1096.24
2022-10-17T08:08:17.132Z,1094.49
2022-10-17T08:09:17.135Z,1092.66
2022-10-17T08:10:17.142Z,1090.29
2022-10-17T08:11:17.142Z,1088.06
2022-10-17T08:12:17.158Z,1086.1
2022-10-17T08:13:17.145Z,1083.58
2022-10-17T08:14:17.149Z,1081.6
2022-10-17T08:15:17.171Z,1079.68
2022-10-17T08:16:17.148Z,1078.1
2022-10-17T08:17:17.166Z,1076.3
2022-10-17T08:18:17.152Z,1074.82
2022-10-17T08:19:17.155Z,1073.21
2022-10-17T08:20:17.159Z,1071.59
2022-10-17T08:21:17.156Z,1069.95
2022-10-17T08:22:17.176Z,1068.08
2022-10-17T08:23:17.160Z,1066.65
2022-10-17T08:24:17.159Z,1064.89
2022-10-17T08:25:17.166Z,1063.36
2022-10-17T08:26:17.184Z,1061.57
2022-10-17T08:27:17.183Z,1060.24
2022-10-17T08:28:17.170Z,1058.54
2022-10-17T08:29:17.179Z,1056.94
2022-10-17T08:30:17.172Z,1054.87
2022-10-17T08:31:17.198Z,1052.66
2022-10-17T08:32:17.199Z,1050.26
2022-10-17T08:33:17.182Z,1047.85
2022-10-17T08:34:17.181Z,1045.57
2022-10-17T08:35:17.182Z,1043.74
2022-10-17T08:36:17.186Z,1041.64
2022-10-17T08:37:17.213Z,1039.9
2022-10-17T08:38:20.794Z,1037.95
2022-10-17T08:39:17.193Z,1037.3
2022-10-17T08:40:17.193Z,1036.37
2022-10-17T08:41:17.194Z,1034.63
2022-10-17T08:42:17.227Z,1033.04
2022-10-17T08:43:17.199Z,1031.58
2022-10-17T08:44:17.240Z,1029.6
2022-10-17T08:45:17.199Z,1026.71
2022-10-17T08:46:17.313Z,1024.27
2022-10-17T08:47:17.252Z,1021.3
2022-10-17T08:48:17.215Z,1019.12
2022-10-17T08:49:17.212Z,1016.76
2022-10-17T08:50:17.208Z,1014.22
2022-10-17T08:51:17.210Z,1011.87
2022-10-17T08:52:17.230Z,1010.26
2022-10-17T08:53:17.222Z,1007.76
2022-10-17T08:54:17.217Z,1005.74
2022-10-17T08:55:17.225Z,1003.73
2022-10-17T08:56:19.693Z,1002.5
2022-10-17T08:57:17.240Z,1002.15
2022-10-17T08:58:17.228Z,1000.7
2022-10-17T08:59:17.226Z,999.26
2022-10-17T09:00:17.228Z,997.5
2022-10-17T09:01:17.239Z,996.01
2022-10-17T09:02:17.254Z,994.44
2022-10-17T09:03:17.387Z,993.24
2022-10-17T09:04:17.314Z,991.56
2022-10-17T09:05:17.319Z,989.34
2022-10-17T09:06:17.243Z,987.8
2022-10-17T09:07:17.269Z,986.78
2022-10-17T09:08:17.250Z,986.19
2022-10-17T09:09:17.407Z,985.48
2022-10-17T09:10:17.252Z,985.18
2022-10-17T09:11:17.258Z,985.1
2022-10-17T09:12:17.274Z,983.87
2022-10-17T09:13:17.255Z,982.71
2022-10-17T09:14:17.254Z,981.3
2022-10-17T09:15:17.258Z,979.16
2022-10-17T09:16:17.258Z,977.51
2022-10-17T09:17:17.281Z,974.74
2022-10-17T09:18:18.658Z,971.87
2022-10-17T09:19:17.295Z,968.64
2022-10-17T09:20:17.357Z,965.65
2022-10-17T09:21:17.294Z,962.75
2022-10-17T09:22:17.292Z,960.69
2022-10-17T09:23:17.274Z,957.27
2022-10-17T09:24:17.277Z,954.5
2022-10-17T09:25:17.276Z,952.95
2022-10-17T09:26:17.280Z,950.9
2022-10-17T09:27:17.295Z,947.97
2022-10-17T09:28:17.279Z,945.46
2022-10-17T09:29:17.283Z,942.31
2022-10-17T09:30:33.355Z,938.87
2022-10-17T09:31:17.291Z,934.81
2022-10-17T09:32:17.307Z,930.58
2022-10-17T09:33:22.929Z,925.93
2022-10-17T09:34:17.297Z,922.7
2022-10-17T09:35:17.327Z,919.09
2022-10-17T09:36:17.295Z,914.9
2022-10-17T09:37:17.330Z,911.95
2022-10-17T09:38:17.300Z,909.17
2022-10-17T09:39:18.380Z,906.67
2022-10-17T09:40:17.303Z,903.96
2022-10-17T09:41:39.634Z,901.67
2022-10-17T09:42:17.327Z,899.17
2022-10-17T09:43:17.310Z,897.59
2022-10-17T09:44:17.315Z,896.19
2022-10-17T09:45:20.348Z,895.7
2022-10-17T09:46:17.323Z,894.82
2022-10-17T09:47:17.337Z,895.18
2022-10-17T09:48:17.319Z,896.22
2022-10-17T09:49:17.489Z,897.24
2022-10-17T09:50:17.327Z,897.35
2022-10-17T09:51:25.513Z,897.36
2022-10-17T09:52:17.347Z,897
2022-10-17T09:53:17.333Z,897.15
2022-10-17T09:54:17.330Z,896.4
2022-10-17T09:55:17.337Z,896.25
2022-10-17T09:56:20.439Z,896.39
2022-10-17T09:57:17.350Z,894.69
2022-10-17T09:58:17.342Z,893.72
2022-10-17T09:59:17.341Z,893.68
2022-10-17T10:00:17.348Z,893.68
2022-10-17T10:01:19.592Z,893.68
2022-10-17T10:02:17.362Z,894.17
2022-10-17T10:03:17.350Z,894.93
2022-10-17T10:04:17.350Z,895.57
2022-10-17T10:05:17.350Z,895.54
2022-10-17T10:06:17.357Z,894.28
2022-10-17T10:07:20.519Z,893.23
2022-10-17T10:08:17.361Z,893.13
2022-10-17T10:09:17.380Z,893.11
2022-10-17T10:10:17.358Z,892.47
2022-10-17T10:11:17.364Z,890.67
2022-10-17T10:12:17.363Z,889.38
2022-10-17T10:13:17.366Z,888.16
2022-10-17T10:14:17.371Z,887.33
2022-10-17T10:15:17.380Z,888.98
2022-10-17T10:16:17.377Z,890.05
2022-10-17T10:17:17.375Z,889.91
2022-10-17T10:18:20.636Z,889.17
2022-10-17T10:19:17.377Z,890.44
2022-10-17T10:20:17.378Z,891.86
2022-10-17T10:21:17.386Z,893.26
2022-10-17T10:22:17.386Z,895.4
2022-10-17T10:23:17.439Z,897.43
2022-10-17T10:24:17.388Z,899.08
2022-10-17T10:25:17.391Z,899.19
2022-10-17T10:26:20.259Z,900.68
2022-10-17T10:27:17.394Z,903.48
2022-10-17T10:28:17.401Z,906.81
2022-10-17T10:29:20.411Z,908.98
2022-10-17T10:30:17.396Z,910.6
2022-10-17T10:31:17.400Z,912.76
2022-10-17T10:32:17.402Z,914.97
2022-10-17T10:33:17.408Z,917.07
2022-10-17T10:34:17.403Z,920.58
2022-10-17T10:35:17.409Z,922.32
2022-10-17T10:36:17.411Z,922.18
2022-10-17T10:37:17.413Z,922.21
2022-10-17T10:38:17.450Z,921.81
2022-10-17T10:39:17.443Z,919.69
2022-10-17T10:40:20.544Z,917.22
2022-10-17T10:41:17.420Z,915.26
2022-10-17T10:42:17.423Z,912.78
2022-10-17T10:43:17.425Z,910.2
2022-10-17T10:44:17.427Z,908.23
2022-10-17T10:45:35.834Z,906.71
2022-10-17T10:46:17.426Z,905.34
2022-10-17T10:47:17.437Z,902.97
2022-10-17T10:48:17.434Z,900.54
2022-10-17T10:49:17.434Z,898.57
2022-10-17T10:50:17.439Z,897.18
2022-10-17T10:51:17.445Z,896.15
2022-10-17T10:52:17.441Z,894.14
2022-10-17T10:53:17.441Z,892.69
2022-10-17T10:54:17.447Z,891.53
2022-10-17T10:55:17.500Z,890.9
2022-10-17T10:56:17.453Z,890.72
2022-10-17T10:57:17.453Z,891.4
2022-10-17T10:58:17.452Z,891.12
2022-10-17T10:59:17.454Z,892.69
2022-10-17T11:00:17.457Z,893.42
2022-10-17T11:01:17.503Z,894.95
2022-10-17T11:02:17.459Z,896.26
2022-10-17T11:03:17.460Z,897.84
2022-10-17T11:04:17.464Z,899.87
2022-10-17T11:05:17.463Z,901.62
2022-10-17T11:06:17.469Z,904.74
2022-10-17T11:07:17.469Z,906.6
2022-10-17T11:08:17.469Z,908.84
2022-10-17T11:09:17.494Z,910.82
2022-10-17T11:10:17.476Z,912.54
2022-10-17T11:11:17.503Z,914.38
2022-10-17T11:12:17.491Z,917.07
2022-10-17T11:13:17.482Z,920.74
2022-10-17T11:14:17.511Z,923.73
2022-10-17T11:15:17.483Z,925.51
2022-10-17T11:16:17.489Z,925.98
2022-10-17T11:17:17.486Z,926.19
2022-10-17T11:18:17.518Z,925.93
2022-10-17T11:19:17.494Z,925.41
2022-10-17T11:20:17.494Z,925.86
2022-10-17T11:21:17.494Z,926.21
2022-10-17T11:22:17.503Z,926.44
2022-10-17T11:23:17.497Z,926.69
2022-10-17T11:24:17.501Z,927.08
2022-10-17T11:25:17.508Z,928.12
2022-10-17T11:26:17.503Z,929.2
2022-10-17T11:27:17.532Z,929.92
2022-10-17T11:28:17.534Z,930.51
2022-10-17T11:29:17.510Z,930.75
2022-10-17T11:30:17.519Z,932.24
2022-10-17T11:31:17.515Z,933.08
2022-10-17T11:32:17.517Z,933.06
2022-10-17T11:33:17.539Z,934.17
2022-10-17T11:34:17.532Z,935.59
2022-10-17T11:35:17.523Z,936.4
2022-10-17T11:36:17.546Z,937.22
2022-10-17T11:37:17.597Z,938.01
2022-10-17T11:38:17.558Z,940.05
2022-10-17T11:39:17.534Z,941.84
2022-10-17T11:40:19.098Z,942.78
2022-10-17T11:41:17.535Z,945.53
2022-10-17T11:42:17.535Z,948.72
2022-10-17T11:43:17.674Z,952.11
2022-10-17T11:44:17.542Z,953.94
2022-10-17T11:45:17.551Z,955.79
2022-10-17T11:46:17.543Z,957.66
2022-10-17T11:47:17.546Z,959.45
2022-10-17T11:48:17.550Z,961.17
2022-10-17T11:49:20.299Z,961.28
2022-10-17T11:52:05.758Z,963.53
2022-10-17T11:53:05.741Z,964.71
2022-10-17T11:54:05.763Z,964.96
2022-10-17T11:55:05.747Z,964.72
2022-10-17T11:56:05.777Z,963.73
2022-10-17T11:57:05.751Z,962.25
2022-10-17T11:58:05.752Z,959.74
2022-10-17T11:59:05.800Z,958.44
2022-10-17T12:00:05.761Z,957.33
2022-10-17T12:01:05.756Z,956.87
2022-10-17T12:02:05.758Z,956.21
2022-10-17T12:03:05.763Z,956.33
2022-10-17T12:04:05.817Z,956.64
2022-10-17T12:05:05.764Z,956.32
2022-10-17T12:06:05.770Z,956.35
2022-10-17T12:07:05.769Z,956.33
2022-10-17T12:08:05.772Z,955.98
2022-10-17T12:09:05.791Z,955.56
2022-10-17T12:10:05.779Z,954.87
2022-10-17T12:11:05.774Z,953.19
2022-10-17T12:12:05.779Z,951.75
2022-10-17T12:13:05.808Z,949.97
2022-10-17T12:14:06.261Z,947.47
2022-10-17T12:15:05.814Z,945.19
2022-10-17T12:16:05.810Z,943.05
2022-10-17T12:17:08.516Z,941.02